createdAt,value
2024-04-18T00:02:04.922Z,100582.78
2024-04-18T00:04:31.854Z,100576.63
2024-04-18T00:07:02.660Z,100575.09
2024-04-18T00:09:29.602Z,100580.06
2024-04-18T00:11:56.574Z,100580.38
2024-04-18T00:14:43.648Z,100581.06
2024-04-18T00:17:19.749Z,100586.16
2024-04-18T00:19:46.579Z,100591.56
2024-04-18T00:22:31.548Z,100592.75
2024-04-18T00:25:04.400Z,100589.09
2024-04-18T00:27:51.551Z,100586.69
2024-04-18T00:30:40.293Z,100594.31
2024-04-18T00:33:07.343Z,100592.91
2024-04-18T00:35:38.931Z,100592.59
2024-04-18T00:38:16.420Z,100601.09
2024-04-18T00:40:44.517Z,100600.97
2024-04-18T00:43:21.397Z,100607.28
2024-04-18T00:45:56.631Z,100613.34
2024-04-18T00:48:25.666Z,100606.88
2024-04-18T00:50:56.473Z,100614.53
2024-04-18T00:53:25.126Z,100611.44
2024-04-18T00:55:53.147Z,100614.97
2024-04-18T00:58:40.931Z,100616.75
2024-04-18T01:01:21.171Z,100610.94
2024-04-18T01:03:58.303Z,100613.25
2024-04-18T01:06:41.840Z,100612.78
2024-04-18T01:09:18.611Z,100618.75
2024-04-18T01:12:18.024Z,100622.22
2024-04-18T01:14:45.315Z,100625.63
2024-04-18T01:17:32.328Z,100616.44
2024-04-18T01:19:59.725Z,100619.88
2024-04-18T01:22:27.391Z,100624.84
2024-04-18T01:24:54.665Z,100629.44
2024-04-18T01:27:21.607Z,100623.44
2024-04-18T01:30:07.350Z,100632.47
2024-04-18T01:32:54.021Z,100640.66
2024-04-18T01:35:20.835Z,100642.44
2024-04-18T01:37:57.176Z,100640.72
2024-04-18T01:40:24.412Z,100646.78
2024-04-18T01:43:09.754Z,100646.59
2024-04-18T01:45:56.876Z,100651.47
2024-04-18T01:48:23.975Z,100648.22
2024-04-18T01:51:09.728Z,100657.94
2024-04-18T01:53:37.745Z,100655.41
2024-04-18T01:56:17.968Z,100661.75
2024-04-18T01:58:46.922Z,100661.22
2024-04-18T02:01:14.578Z,100663.50
2024-04-18T02:03:42.402Z,100667.06
2024-04-18T02:06:16.196Z,100659.25
2024-04-18T02:08:49.962Z,100672.28
2024-04-18T02:11:37.532Z,100669.38
2024-04-18T02:14:14.410Z,100674.81
2024-04-18T02:16:41.626Z,100679.59
2024-04-18T02:19:24.298Z,100681.47
2024-04-18T02:22:09.881Z,100680.69
2024-04-18T02:24:39.992Z,100679.44
2024-04-18T02:27:07.231Z,100681.78
2024-04-18T02:29:34.039Z,100689.44
2024-04-18T02:32:01.132Z,100681.63
2024-04-18T02:34:30.740Z,100681.63
2024-04-18T02:36:57.805Z,100682.00
2024-04-18T02:39:24.986Z,100684.44
2024-04-18T02:41:51.975Z,100694.69
2024-04-18T02:44:28.136Z,100699.81
2024-04-18T02:46:55.049Z,100705.28
2024-04-18T02:49:22.264Z,100700.78
2024-04-18T02:51:58.678Z,100703.53
2024-04-18T02:54:44.170Z,100709.13
2024-04-18T02:57:11.140Z,100710.28
2024-04-18T02:59:38.376Z,100704.75
2024-04-18T03:02:24.880Z,100712.25
2024-04-18T03:04:52.097Z,100711.38
2024-04-18T03:07:23.959Z,100710.69
2024-04-18T03:09:51.635Z,100719.16
2024-04-18T03:12:28.402Z,100712.84
2024-04-18T03:15:20.787Z,100715.72
2024-04-18T03:18:06.829Z,100721.66
2024-04-18T03:20:34.996Z,100725.94
2024-04-18T03:23:08.889Z,100725.41
2024-04-18T03:25:56.245Z,100723.47
2024-04-18T03:28:23.138Z,100731.84
2024-04-18T03:30:50.076Z,100722.50
2024-04-18T03:33:17.337Z,100726.03
2024-04-18T03:35:44.383Z,100724.41
2024-04-18T03:38:14.059Z,100726.72
2024-04-18T03:40:41.557Z,100733.72
2024-04-18T03:43:08.490Z,100736.31
2024-04-18T03:45:35.483Z,100743.16
2024-04-18T03:48:21.964Z,100744.16
2024-04-18T03:50:48.928Z,100752.03
2024-04-18T03:53:22.305Z,100745.03
2024-04-18T03:56:12.455Z,100752.19
2024-04-18T03:58:40.101Z,100758.50
2024-04-18T04:01:06.931Z,100760.50
2024-04-18T04:03:34.114Z,100768.16
2024-04-18T04:06:01.241Z,100761.47
2024-04-18T04:08:28.030Z,100765.28
2024-04-18T04:11:10.681Z,100762.63
2024-04-18T04:13:37.707Z,100766.38
2024-04-18T04:16:17.015Z,100764.66
2024-04-18T04:18:44.643Z,100769.09
2024-04-18T04:21:37.239Z,100776.56
2024-04-18T04:24:04.459Z,100780.31
2024-04-18T04:26:50.413Z,100785.69
2024-04-18T04:29:17.332Z,100792.44
2024-04-18T04:31:44.377Z,100795.63
2024-04-18T04:34:11.738Z,100801.38
2024-04-18T04:36:39.088Z,100807.69
2024-04-18T04:39:06.959Z,100810.53
2024-04-18T04:41:42.824Z,100822.56
2024-04-18T04:44:09.736Z,100817.44
2024-04-18T04:46:49.928Z,100821.59
2024-04-18T04:49:17.217Z,100822.19
2024-04-18T04:52:07.294Z,100822.38
2024-04-18T04:54:43.307Z,100825.25
2024-04-18T04:57:12.027Z,100834.84
2024-04-18T04:59:39.361Z,100829.22
2024-04-18T05:02:07.387Z,100836.56
2024-04-18T05:04:51.018Z,100838.16
2024-04-18T05:07:30.726Z,100846.34
2024-04-18T05:09:58.412Z,100847.34
2024-04-18T05:12:25.858Z,100847.06
2024-04-18T05:14:52.740Z,100860.22
2024-04-18T05:17:42.721Z,100869.41
2024-04-18T05:20:12.779Z,100875.16
2024-04-18T05:22:39.552Z,100882.06
2024-04-18T05:25:06.490Z,100887.78
2024-04-18T05:27:33.963Z,100894.69
2024-04-18T05:30:19.506Z,100894.06
2024-04-18T05:32:49.442Z,100903.25
2024-04-18T05:35:16.622Z,100900.41
2024-04-18T05:37:43.601Z,100904.94
2024-04-18T05:40:10.869Z,100910.25
2024-04-18T05:42:38.048Z,100905.22
2024-04-18T05:45:08.152Z,100903.69
2024-04-18T05:47:55.290Z,100908.94
2024-04-18T05:50:22.315Z,100915.22
2024-04-18T05:52:49.837Z,100913.38
2024-04-18T05:55:22.502Z,100912.78
2024-04-18T05:57:49.396Z,100913.50
2024-04-18T06:00:35.514Z,100920.06
2024-04-18T06:03:03.310Z,100924.50
2024-04-18T06:05:31.096Z,100933.09
2024-04-18T06:08:16.060Z,100931.59
2024-04-18T06:10:43.816Z,100939.28
2024-04-18T06:13:21.322Z,100939.53
2024-04-18T06:15:49.495Z,100949.47
2024-04-18T06:18:17.582Z,100953.59
2024-04-18T06:20:51.384Z,100949.53
2024-04-18T06:23:19.580Z,100950.22
2024-04-18T06:26:06.325Z,100952.00
2024-04-18T06:28:34.451Z,100954.50
2024-04-18T06:31:01.190Z,100965.66
2024-04-18T06:33:31.101Z,100962.56
2024-04-18T06:36:03.158Z,100968.72
2024-04-18T06:38:29.905Z,100965.91
2024-04-18T06:40:56.736Z,100965.75
2024-04-18T06:43:41.123Z,100971.38
2024-04-18T06:46:10.095Z,100967.56
2024-04-18T06:48:37.149Z,100973.66
2024-04-18T06:51:04.056Z,100974.03
2024-04-18T06:53:30.845Z,100961.47
2024-04-18T06:55:57.946Z,100966.38
2024-04-18T06:58:25.141Z,100972.38
2024-04-18T07:00:52.161Z,100969.88
2024-04-18T07:03:19.683Z,100984.72
2024-04-18T07:05:52.930Z,100977.41
2024-04-18T07:08:25.793Z,100983.84
2024-04-18T07:10:54.283Z,100976.28
2024-04-18T07:13:28.377Z,100969.41
2024-04-18T07:15:56.247Z,100972.00
2024-04-18T07:18:42.318Z,100982.72
2024-04-18T07:21:09.205Z,100982.38
2024-04-18T07:23:36.797Z,100991.44
2024-04-18T07:26:04.635Z,101000.59
2024-04-18T07:28:31.683Z,101000.78
2024-04-18T07:30:58.588Z,101005.50
2024-04-18T07:33:25.693Z,101000.41
2024-04-18T07:35:56.944Z,101001.03
2024-04-18T07:38:28.066Z,100998.72
2024-04-18T07:40:55.361Z,101011.75
2024-04-18T07:43:40.932Z,101008.78
2024-04-18T07:46:09.615Z,101016.09
2024-04-18T07:48:36.657Z,101014.38
2024-04-18T07:51:03.884Z,101013.69
2024-04-18T07:53:31.171Z,101001.81
2024-04-18T07:55:58.555Z,101000.75
2024-04-18T07:58:27.813Z,101004.31
2024-04-18T08:00:56.895Z,101006.75
2024-04-18T08:03:27.425Z,101011.47
2024-04-18T08:05:58.304Z,101019.06
2024-04-18T08:08:29.379Z,101015.53
2024-04-18T08:11:16.862Z,101013.63
2024-04-18T08:13:48.668Z,101024.09
2024-04-18T08:16:19.409Z,101025.31
2024-04-18T08:18:47.253Z,101025.28
2024-04-18T08:21:14.444Z,101022.88
2024-04-18T08:23:41.737Z,101022.09
2024-04-18T08:26:08.640Z,101027.19
2024-04-18T08:28:35.551Z,101023.69
2024-04-18T08:31:02.706Z,101024.53
2024-04-18T08:33:29.864Z,101032.94
2024-04-18T08:35:56.805Z,101033.88
2024-04-18T08:38:24.130Z,101028.03
2024-04-18T08:40:52.184Z,101027.84
2024-04-18T08:43:20.024Z,101035.34
2024-04-18T08:45:47.634Z,101021.84
2024-04-18T08:48:16.401Z,101022.66
2024-04-18T08:50:44.742Z,101025.81
2024-04-18T08:53:12.872Z,101029.53
2024-04-18T08:55:49.150Z,101037.63
2024-04-18T08:58:17.449Z,101033.19
2024-04-18T09:00:48.169Z,101029.03
2024-04-18T09:03:15.543Z,101042.13
2024-04-18T09:05:46.303Z,101038.94
2024-04-18T09:08:15.352Z,101038.34
2024-04-18T09:10:42.684Z,101035.56
2024-04-18T09:13:12.405Z,101031.00
2024-04-18T09:15:40.070Z,101038.56
2024-04-18T09:18:08.621Z,101033.44
2024-04-18T09:20:38.386Z,101038.47
2024-04-18T09:23:05.824Z,101037.13
2024-04-18T09:25:35.489Z,101043.88
2024-04-18T09:28:04.801Z,101054.19
2024-04-18T09:30:31.706Z,101047.53
2024-04-18T09:33:05.258Z,101054.78
2024-04-18T09:35:35.848Z,101048.16
2024-04-18T09:38:09.246Z,101055.44
2024-04-18T09:40:45.593Z,101059.16
2024-04-18T09:43:31.946Z,101053.09
2024-04-18T09:46:06.382Z,101061.50
2024-04-18T09:48:35.238Z,101055.44
2024-04-18T09:51:04.389Z,101055.66
2024-04-18T09:53:31.663Z,101062.00
2024-04-18T09:56:00.853Z,101062.50
2024-04-18T09:58:28.782Z,101062.78
2024-04-18T10:00:57.633Z,101057.56
2024-04-18T10:03:25.717Z,101062.25
2024-04-18T10:05:55.487Z,101061.06
2024-04-18T10:08:28.697Z,101063.59
2024-04-18T10:10:57.307Z,101060.16
2024-04-18T10:13:26.664Z,101057.81
2024-04-18T10:16:13.171Z,101055.53
2024-04-18T10:18:41.704Z,101053.25
2024-04-18T10:21:18.869Z,101046.69
2024-04-18T10:23:54.911Z,101054.44
2024-04-18T10:26:23.373Z,101054.41
2024-04-18T10:28:51.163Z,101056.72
2024-04-18T10:31:19.032Z,101062.25
2024-04-18T10:33:46.139Z,101060.25
2024-04-18T10:36:17.442Z,101051.72
2024-04-18T10:38:48.697Z,101055.03
2024-04-18T10:41:17.460Z,101064.22
2024-04-18T10:43:46.582Z,101057.47
2024-04-18T10:46:14.850Z,101072.88
2024-04-18T10:48:42.810Z,101068.94
2024-04-18T10:51:09.827Z,101066.06
2024-04-18T10:53:38.831Z,101073.22
2024-04-18T10:56:06.506Z,101066.31
2024-04-18T10:58:33.747Z,101070.97
2024-04-18T11:01:03.764Z,101072.78
2024-04-18T11:03:31.871Z,101073.53
2024-04-18T11:06:01.732Z,101075.00
2024-04-18T11:08:33.048Z,101069.94
2024-04-18T11:11:03.677Z,101063.97
2024-04-18T11:13:30.972Z,101064.56
2024-04-18T11:15:58.158Z,101060.81
2024-04-18T11:18:25.692Z,101068.13
2024-04-18T11:20:53.641Z,101063.06
2024-04-18T11:23:32.220Z,101062.59
2024-04-18T11:26:02.562Z,101069.38
2024-04-18T11:28:29.742Z,101064.94
2024-04-18T11:30:57.121Z,101062.38
2024-04-18T11:33:24.393Z,101066.72
2024-04-18T11:35:51.796Z,101065.19
2024-04-18T11:38:18.718Z,101066.13
2024-04-18T11:40:46.329Z,101059.56
2024-04-18T11:43:13.131Z,101059.38
2024-04-18T11:45:40.292Z,101070.25
2024-04-18T11:48:07.767Z,101064.44
2024-04-18T11:50:34.672Z,101071.91
2024-04-18T11:53:01.831Z,101081.69
2024-04-18T11:55:29.454Z,101076.72
2024-04-18T11:57:57.085Z,101076.91
2024-04-18T12:00:35.828Z,101077.94
2024-04-18T12:03:09.020Z,101078.44
2024-04-18T12:05:38.093Z,101073.22
2024-04-18T12:08:06.884Z,101079.97
2024-04-18T12:10:34.197Z,101082.94
2024-04-18T12:13:04.287Z,101080.47
2024-04-18T12:15:34.662Z,101078.97
2024-04-18T12:18:03.836Z,101086.06
2024-04-18T12:20:56.911Z,101081.25
2024-04-18T12:23:35.606Z,101067.00
2024-04-18T12:26:05.201Z,101072.03
2024-04-18T12:28:44.220Z,101070.19
2024-04-18T12:31:11.446Z,101071.34
2024-04-18T12:33:50.372Z,101071.25
2024-04-18T12:36:18.567Z,101062.69
2024-04-18T12:38:48.468Z,101071.50
2024-04-18T12:41:15.461Z,101066.78
2024-04-18T12:43:43.622Z,101075.75
2024-04-18T12:46:29.491Z,101073.25
2024-04-18T12:48:57.761Z,101071.28
2024-04-18T12:51:25.088Z,101080.44
2024-04-18T12:53:54.716Z,101078.88
2024-04-18T12:56:41.554Z,101074.06
2024-04-18T12:59:24.510Z,101068.72
2024-04-18T13:01:51.897Z,101062.00
2024-04-18T13:04:19.024Z,101058.56
2024-04-18T13:06:46.229Z,101070.41
2024-04-18T13:09:28.636Z,101062.59
2024-04-18T13:12:00.083Z,101060.16
2024-04-18T13:14:27.572Z,101057.16
2024-04-18T13:16:55.887Z,101059.16
2024-04-18T13:19:42.760Z,101053.47
2024-04-18T13:22:15.782Z,101057.47
2024-04-18T13:24:42.900Z,101049.78
2024-04-18T13:27:27.016Z,101050.09
2024-04-18T13:29:55.680Z,101062.31
2024-04-18T13:32:32.322Z,101049.84
2024-04-18T13:34:59.848Z,101052.34
2024-04-18T13:37:26.618Z,101046.59
2024-04-18T13:40:12.392Z,101050.19
2024-04-18T13:42:58.852Z,101050.94
2024-04-18T13:45:33.414Z,101052.25
2024-04-18T13:48:02.699Z,101049.72
2024-04-18T13:50:43.401Z,101048.75
2024-04-18T13:53:10.326Z,101056.28
2024-04-18T13:55:45.220Z,101045.78
2024-04-18T13:58:12.366Z,101044.00
2024-04-18T14:01:01.212Z,101036.38
2024-04-18T14:03:30.366Z,101047.59
2024-04-18T14:06:06.297Z,101050.47
2024-04-18T14:08:37.297Z,101046.63
2024-04-18T14:11:26.177Z,101040.38
2024-04-18T14:14:06.201Z,101044.28
2024-04-18T14:16:51.844Z,101041.22
2024-04-18T14:19:31.412Z,101038.59
2024-04-18T14:22:09.100Z,101030.19
2024-04-18T14:24:41.174Z,101029.88
2024-04-18T14:27:17.430Z,101030.22
2024-04-18T14:29:59.600Z,101032.72
2024-04-18T14:32:35.822Z,101028.81
2024-04-18T14:35:03.206Z,101019.63
2024-04-18T14:37:30.767Z,101027.78
2024-04-18T14:39:57.786Z,101018.84
2024-04-18T14:42:24.794Z,101016.78
2024-04-18T14:44:53.559Z,101024.66
2024-04-18T14:47:20.538Z,101029.00
2024-04-18T14:50:02.550Z,101022.97
2024-04-18T14:52:34.759Z,101026.75
2024-04-18T14:55:25.905Z,101025.72
2024-04-18T14:58:01.734Z,101016.31
2024-04-18T15:00:53.068Z,101012.59
2024-04-18T15:03:21.253Z,101022.19
2024-04-18T15:05:58.439Z,101017.97
2024-04-18T15:08:40.602Z,101020.63
2024-04-18T15:11:22.920Z,101021.28
2024-04-18T15:14:06.024Z,101024.31
2024-04-18T15:16:33.903Z,101014.59
2024-04-18T15:19:01.397Z,101016.78
2024-04-18T15:21:48.223Z,101020.38
2024-04-18T15:24:15.096Z,101019.63
2024-04-18T15:27:01.438Z,101011.59
2024-04-18T15:29:28.905Z,101017.69
2024-04-18T15:32:15.419Z,101021.47
2024-04-18T15:34:45.236Z,101016.13
2024-04-18T15:37:32.655Z,101013.50
2024-04-18T15:39:59.586Z,101026.66
2024-04-18T15:42:27.455Z,101024.44
2024-04-18T15:44:54.565Z,101018.63
2024-04-18T15:47:32.565Z,101025.50
2024-04-18T15:50:18.237Z,101019.44
2024-04-18T15:52:45.648Z,101019.63
2024-04-18T15:55:31.580Z,101013.81
2024-04-18T15:58:17.745Z,101023.13
2024-04-18T16:00:44.823Z,101020.00
2024-04-18T16:03:32.624Z,101018.69
2024-04-18T16:06:18.356Z,101010.13
2024-04-18T16:09:05.434Z,101009.94
2024-04-18T16:11:42.006Z,101005.47
2024-04-18T16:14:28.362Z,101009.38
2024-04-18T16:16:55.379Z,101003.91
2024-04-18T16:19:37.978Z,100999.09
2024-04-18T16:22:05.649Z,101002.81
2024-04-18T16:24:48.833Z,101008.63
2024-04-18T16:27:15.913Z,100996.56
2024-04-18T16:29:58.093Z,100994.28
2024-04-18T16:32:40.261Z,100997.41
2024-04-18T16:35:08.195Z,100988.75
2024-04-18T16:37:39.280Z,100995.28
2024-04-18T16:40:15.422Z,101001.38
2024-04-18T16:43:03.511Z,100996.97
2024-04-18T16:46:03.918Z,100999.94
2024-04-18T16:48:30.833Z,101002.84
2024-04-18T16:50:57.736Z,101000.66
2024-04-18T16:53:25.686Z,100997.53
2024-04-18T16:56:12.815Z,100998.19
2024-04-18T16:58:52.936Z,100995.28
2024-04-18T17:01:19.822Z,100995.88
2024-04-18T17:03:46.896Z,100987.25
2024-04-18T17:06:41.914Z,100993.50
2024-04-18T17:09:15.322Z,100992.25
2024-04-18T17:11:42.489Z,100990.81
2024-04-18T17:14:29.993Z,100994.19
2024-04-18T17:16:56.920Z,100990.38
2024-04-18T17:19:23.925Z,100986.81
2024-04-18T17:21:50.764Z,101001.13
2024-04-18T17:24:17.574Z,100995.88
2024-04-18T17:27:03.275Z,100990.09
2024-04-18T17:29:30.150Z,100996.09
2024-04-18T17:31:57.357Z,100988.72
2024-04-18T17:34:24.276Z,100991.47
2024-04-18T17:36:51.083Z,100986.84
2024-04-18T17:39:37.861Z,100979.13
2024-04-18T17:42:05.136Z,100972.97
2024-04-18T17:44:51.975Z,100976.94
2024-04-18T17:47:28.969Z,100982.44
2024-04-18T17:49:56.157Z,100978.81
2024-04-18T17:52:25.567Z,100978.16
2024-04-18T17:54:53.784Z,100974.34
2024-04-18T17:57:22.715Z,100975.97
2024-04-18T18:00:10.381Z,100983.03
2024-04-18T18:02:41.665Z,100975.13
2024-04-18T18:05:08.946Z,100972.25
2024-04-18T18:07:38.135Z,100975.19
2024-04-18T18:10:05.502Z,100971.97
2024-04-18T18:12:32.420Z,100975.91
2024-04-18T18:14:59.738Z,100976.28
2024-04-18T18:17:26.757Z,100978.53
2024-04-18T18:19:53.870Z,100979.41
2024-04-18T18:22:20.880Z,100981.50
2024-04-18T18:24:47.854Z,100983.41
2024-04-18T18:27:14.669Z,100978.75
2024-04-18T18:29:41.454Z,100982.75
2024-04-18T18:32:13.914Z,100968.50
2024-04-18T18:34:47.242Z,100978.97
2024-04-18T18:37:14.863Z,100976.22
2024-04-18T18:39:42.814Z,100972.97
2024-04-18T18:42:09.738Z,100964.94
2024-04-18T18:44:36.495Z,100968.19
2024-04-18T18:47:03.381Z,100961.38
2024-04-18T18:49:48.472Z,100963.59
2024-04-18T18:52:15.472Z,100959.50
2024-04-18T18:54:42.374Z,100957.81
2024-04-18T18:57:09.316Z,100962.41
2024-04-18T18:59:36.140Z,100963.97
2024-04-18T19:02:03.111Z,100960.56
2024-04-18T19:04:49.988Z,100964.50
2024-04-18T19:07:17.049Z,100960.22
2024-04-18T19:09:44.422Z,100966.25
2024-04-18T19:12:12.543Z,100967.59
2024-04-18T19:14:39.491Z,100977.06
2024-04-18T19:17:07.210Z,100977.22
2024-04-18T19:19:34.683Z,100969.53
2024-04-18T19:22:03.634Z,100971.94
2024-04-18T19:24:30.478Z,100972.47
2024-04-18T19:26:58.519Z,100977.94
2024-04-18T19:29:35.532Z,100971.94
2024-04-18T19:32:07.083Z,100971.06
2024-04-18T19:34:33.950Z,100980.69
2024-04-18T19:37:00.871Z,100971.25
2024-04-18T19:39:27.812Z,100968.16
2024-04-18T19:41:57.814Z,100967.00
2024-04-18T19:44:24.574Z,100973.19
2024-04-18T19:46:51.779Z,100959.97
2024-04-18T19:49:18.630Z,100958.94
2024-04-18T19:52:00.020Z,100961.00
2024-04-18T19:54:28.856Z,100963.25
2024-04-18T19:56:55.856Z,100953.63
2024-04-18T19:59:22.657Z,100959.81
2024-04-18T20:01:49.839Z,100957.22
2024-04-18T20:04:16.726Z,100954.28
2024-04-18T20:06:43.647Z,100952.28
2024-04-18T20:09:10.435Z,100953.47
2024-04-18T20:11:37.436Z,100957.59
2024-04-18T20:14:04.438Z,100952.44
2024-04-18T20:16:31.194Z,100945.44
2024-04-18T20:19:14.319Z,100941.66
2024-04-18T20:21:43.574Z,100936.50
2024-04-18T20:24:11.619Z,100933.78
2024-04-18T20:26:56.944Z,100929.00
2024-04-18T20:29:43.845Z,100929.00
2024-04-18T20:32:23.672Z,100925.94
2024-04-18T20:34:50.522Z,100924.19
2024-04-18T20:37:18.287Z,100926.28
2024-04-18T20:39:46.284Z,100928.31
2024-04-18T20:42:14.026Z,100926.94
2024-04-18T20:44:59.486Z,100915.13
2024-04-18T20:47:26.739Z,100911.03
2024-04-18T20:49:53.679Z,100919.78
2024-04-18T20:52:20.702Z,100911.56
2024-04-18T20:54:47.548Z,100902.66
2024-04-18T20:57:14.328Z,100911.22
2024-04-18T20:59:41.543Z,100915.00
2024-04-18T21:02:08.776Z,100914.63
2024-04-18T21:04:35.668Z,100903.84
2024-04-18T21:07:02.600Z,100909.31
2024-04-18T21:09:29.454Z,100903.84
2024-04-18T21:11:56.422Z,100900.06
2024-04-18T21:14:23.407Z,100898.03
2024-04-18T21:16:50.251Z,100891.34
2024-04-18T21:19:21.010Z,100891.34
2024-04-18T21:21:48.984Z,100883.28
2024-04-18T21:24:16.804Z,100873.88
2024-04-18T21:26:47.724Z,100872.34
2024-04-18T21:29:15.564Z,100877.97
2024-04-18T21:31:42.846Z,100882.59
2024-04-18T21:34:11.689Z,100876.94
2024-04-18T21:36:38.913Z,100873.22
2024-04-18T21:39:05.967Z,100879.34
2024-04-18T21:41:35.867Z,100879.34
2024-04-18T21:44:03.045Z,100883.81
2024-04-18T21:46:29.993Z,100875.75
2024-04-18T21:48:57.409Z,100876.63
2024-04-18T21:51:24.386Z,100873.38
2024-04-18T21:53:51.248Z,100872.53
2024-04-18T21:56:18.068Z,100869.09
2024-04-18T21:58:44.933Z,100866.53
2024-04-18T22:01:32.302Z,100866.69
2024-04-18T22:03:59.272Z,100863.63
2024-04-18T22:06:26.253Z,100864.09
2024-04-18T22:08:53.351Z,100849.03
2024-04-18T22:11:20.348Z,100847.53
2024-04-18T22:13:47.233Z,100838.97
2024-04-18T22:16:14.045Z,100830.75
2024-04-18T22:18:41.137Z,100817.06
2024-04-18T22:21:08.223Z,100813.59
2024-04-18T22:23:35.180Z,100814.31
2024-04-18T22:26:02.114Z,100817.06
2024-04-18T22:28:29.007Z,100804.03
2024-04-18T22:31:02.394Z,100813.63
2024-04-18T22:33:29.498Z,100800.97
2024-04-18T22:35:56.785Z,100801.63
2024-04-18T22:38:23.899Z,100812.25
2024-04-18T22:40:51.791Z,100791.69
2024-04-18T22:43:19.435Z,100786.22
2024-04-18T22:45:46.340Z,100783.19
2024-04-18T22:48:13.507Z,100780.06
2024-04-18T22:50:44.410Z,100780.06
2024-04-18T22:53:11.417Z,100778.84
2024-04-18T22:55:38.463Z,100770.47
2024-04-18T22:58:07.933Z,100770.47
2024-04-18T23:00:38.909Z,100766.53
2024-04-18T23:03:06.868Z,100759.50
2024-04-18T23:05:37.038Z,100764.97
2024-04-18T23:08:04.657Z,100765.31
2024-04-18T23:10:32.703Z,100767.22
2024-04-18T23:12:59.849Z,100758.50
2024-04-18T23:15:45.194Z,100757.09
2024-04-18T23:18:12.362Z,100748.91
2024-04-18T23:20:39.787Z,100752.66
2024-04-18T23:23:07.504Z,100746.84
2024-04-18T23:25:34.300Z,100734.53
2024-04-18T23:28:01.093Z,100731.63
2024-04-18T23:30:27.998Z,100729.06
2024-04-18T23:32:54.998Z,100718.47
2024-04-18T23:35:21.919Z,100721.53
2024-04-18T23:37:48.664Z,100706.50
2024-04-18T23:40:16.660Z,100697.25
2024-04-18T23:42:43.703Z,100690.03
2024-04-18T23:45:10.750Z,100673.97
2024-04-18T23:47:37.795Z,100662.00
2024-04-18T23:50:04.911Z,100655.13
2024-04-18T23:52:31.730Z,100642.13
2024-04-18T23:54:58.701Z,100641.09
2024-04-18T23:57:27.502Z,100644.84
2024-04-18T23:59:54.625Z,100640.06
